Time;durP1;ratioP1;P1;durP2;ratioP2;P2;SDS_P1;SDS_P2;PMS_P1;PMS_P2;Temp;Humidity;BMP_temperature;BMP_pressure;BME280_temperature;BME280_humidity;BME280_pressure;Samples;Min_cycle;Max_cycle;Signal;HPM_P1;HPM_P2
2022/05/20 00:02:16;;;;;;;745.40;704.75;;;16.60;99.90;;;;;;5045830;28;20205;-72
2022/05/20 00:04:42;;;;;;;739.78;699.53;;;16.50;99.90;;;;;;5045711;28;20191;-72
2022/05/20 00:07:09;;;;;;;748.72;707.40;;;16.30;99.90;;;;;;5047451;28;20182;-73
2022/05/20 00:09:36;;;;;;;762.78;720.25;;;16.30;99.90;;;;;;5030865;28;20596;-72
2022/05/20 00:12:04;;;;;;;759.00;716.35;;;16.20;99.90;;;;;;5019646;28;20179;-72
2022/05/20 00:14:31;;;;;;;767.97;724.90;;;16.20;99.90;;;;;;5035370;28;20185;-72
2022/05/20 00:16:56;;;;;;;787.58;742.08;;;16.30;99.90;;;;;;5035674;28;20265;-72
2022/05/20 00:19:22;;;;;;;803.45;756.67;;;16.20;99.90;;;;;;5035105;28;20644;-72
2022/05/20 00:21:48;;;;;;;810.28;762.60;;;16.30;99.90;;;;;;5042927;28;20575;-72
2022/05/20 00:24:13;;;;;;;840.85;790.60;;;16.30;99.90;;;;;;5043477;28;20190;-72
2022/05/20 00:26:39;;;;;;;836.15;785.85;;;16.30;99.90;;;;;;5034410;28;20216;-73
2022/05/20 00:29:05;;;;;;;836.45;786.25;;;16.40;99.90;;;;;;5035359;28;20190;-72
2022/05/20 00:31:30;;;;;;;834.63;784.42;;;16.30;99.90;;;;;;5018968;28;20190;-73
2022/05/20 00:33:56;;;;;;;832.30;782.58;;;16.30;99.90;;;;;;5031252;28;20182;-73
2022/05/20 00:36:25;;;;;;;824.45;774.85;;;16.30;99.90;;;;;;5028011;28;20182;-72
2022/05/20 00:38:51;;;;;;;829.65;780.30;;;16.20;99.90;;;;;;5044670;28;20672;-73
2022/05/20 00:41:16;;;;;;;818.20;769.70;;;16.20;99.90;;;;;;5036045;28;20234;-72
2022/05/20 00:43:45;;;;;;;820.42;771.40;;;16.20;99.90;;;;;;5036332;28;20643;-72
2022/05/20 00:46:14;;;;;;;798.15;751.40;;;16.10;99.90;;;;;;5036007;28;20206;-72
2022/05/20 00:48:40;;;;;;;807.13;759.28;;;16.10;99.90;;;;;;5050786;28;20179;-72
2022/05/20 00:51:11;;;;;;;830.33;780.40;;;16.00;99.90;;;;;;5034935;28;20232;-72
2022/05/20 00:54:06;;;;;;;800.65;753.40;;;16.00;99.90;;;;;;5034333;28;20606;-72
2022/05/20 00:56:40;;;;;;;780.38;735.45;;;16.00;99.90;;;;;;5036339;28;20202;-72
2022/05/20 00:59:10;;;;;;;758.10;715.25;;;16.00;99.90;;;;;;5053145;28;20198;-73
2022/05/20 01:01:36;;;;;;;778.20;733.35;;;15.90;99.90;;;;;;5055232;28;20688;-73
2022/05/20 01:04:03;;;;;;;772.17;727.97;;;15.90;99.90;;;;;;5044818;28;20214;-72
2022/05/20 01:06:29;;;;;;;775.70;730.50;;;15.80;99.90;;;;;;5040738;28;20712;-72
2022/05/20 01:08:55;;;;;;;768.72;724.53;;;15.70;99.90;;;;;;5042379;28;20190;-72
2022/05/20 01:11:20;;;;;;;787.45;741.92;;;15.70;99.90;;;;;;5034246;28;20193;-72
2022/05/20 01:13:49;;;;;;;790.00;743.72;;;15.70;99.90;;;;;;5035278;28;20186;-72
2022/05/20 01:16:16;;;;;;;779.85;734.55;;;15.50;99.90;;;;;;5035861;28;20221;-72
2022/05/20 01:18:45;;;;;;;761.90;718.17;;;15.60;99.90;;;;;;5052444;28;20671;-71
2022/05/20 01:21:11;;;;;;;721.67;682.28;;;15.60;99.90;;;;;;5040171;28;20209;-72
2022/05/20 01:23:37;;;;;;;726.05;685.72;;;15.50;99.90;;;;;;5035940;28;20201;-72
2022/05/20 01:26:04;;;;;;;716.58;677.42;;;15.50;99.90;;;;;;5030958;28;20560;-72
2022/05/20 01:28:31;;;;;;;739.15;697.47;;;15.50;99.90;;;;;;5067433;28;20333;-72
2022/05/20 01:31:12;;;;;;;717.63;677.63;;;15.50;99.90;;;;;;5050338;28;20187;-72
2022/05/20 01:33:41;;;;;;;710.03;671.15;;;15.60;99.90;;;;;;5053006;28;20252;-72
2022/05/20 01:36:11;;;;;;;662.47;627.75;;;15.50;99.90;;;;;;5086432;28;20178;-73
2022/05/20 01:38:37;;;;;;;503.92;480.88;;;15.50;99.90;;;;;;5053009;28;20237;-72
2022/05/20 01:41:13;;;;;;;494.52;471.45;;;15.50;99.90;;;;;;5046894;28;20182;-73
2022/05/20 01:43:44;;;;;;;508.27;484.67;;;15.50;99.90;;;;;;5067224;28;20190;-72
2022/05/20 01:46:09;;;;;;;494.02;471.00;;;15.50;99.90;;;;;;5049028;28;20201;-72
2022/05/20 01:48:41;;;;;;;499.92;476.75;;;15.60;99.90;;;;;;5067229;28;20635;-72
2022/05/20 01:51:13;;;;;;;474.55;453.50;;;15.50;99.90;;;;;;5053044;28;20322;-72
2022/05/20 01:53:46;;;;;;;469.70;448.40;;;15.50;99.90;;;;;;5033954;28;20538;-72
2022/05/20 01:56:21;;;;;;;458.27;437.67;;;15.40;99.90;;;;;;5081710;28;20190;-74
2022/05/20 01:59:28;;;;;;;473.13;451.70;;;15.50;99.90;;;;;;5033540;28;20252;-72
2022/05/20 02:02:00;;;;;;;447.48;427.33;;;15.50;99.90;;;;;;5029902;28;20241;-71
2022/05/20 02:04:45;;;;;;;452.63;432.35;;;15.40;99.90;;;;;;5052907;28;20186;-73
2022/05/20 02:07:22;;;;;;;451.35;430.95;;;15.40;99.90;;;;;;5034566;28;20273;-72
2022/05/20 02:10:07;;;;;;;434.98;415.08;;;15.30;99.90;;;;;;5035017;28;20178;-72
2022/05/20 02:12:41;;;;;;;433.10;414.27;;;15.20;99.90;;;;;;5042260;28;20566;-72
2022/05/20 02:15:33;;;;;;;439.35;419.20;;;15.20;99.90;;;;;;5034552;28;20538;-72
2022/05/20 02:18:03;;;;;;;432.17;412.98;;;15.20;99.90;;;;;;5066246;28;20273;-71
2022/05/20 02:20:28;;;;;;;419.60;400.65;;;15.10;99.90;;;;;;5034169;28;20660;-73
2022/05/20 02:22:58;;;;;;;405.42;387.35;;;15.10;99.90;;;;;;5033924;28;20193;-71
2022/05/20 02:25:30;;;;;;;364.98;348.67;;;15.20;99.90;;;;;;5040633;28;20174;-72
2022/05/20 02:28:02;;;;;;;298.67;285.10;;;15.20;99.90;;;;;;5046875;28;20216;-72
2022/05/20 02:30:32;;;;;;;175.85;165.45;;;15.10;99.90;;;;;;5052371;28;20186;-72
2022/05/20 02:33:21;;;;;;;135.82;128.18;;;15.10;99.90;;;;;;5043964;28;20186;-73
2022/05/20 02:35:47;;;;;;;104.20;97.13;;;15.00;99.90;;;;;;5033229;28;20195;-72
2022/05/20 02:38:19;;;;;;;103.78;96.00;;;15.00;99.90;;;;;;5065861;28;20281;-72
2022/05/20 02:40:48;;;;;;;94.70;88.07;;;15.00;99.90;;;;;;5034325;28;20182;-72
2022/05/20 02:43:14;;;;;;;100.82;93.75;;;15.00;99.90;;;;;;5034009;28;20174;-72
2022/05/20 02:45:42;;;;;;;100.90;93.60;;;15.00;99.90;;;;;;5034722;28;20186;-72
2022/05/20 02:48:08;;;;;;;101.38;93.60;;;14.90;99.90;;;;;;5033914;28;20178;-74
2022/05/20 02:50:34;;;;;;;105.93;98.18;;;14.80;99.90;;;;;;5033015;28;20187;-72
2022/05/20 02:53:00;;;;;;;103.10;95.97;;;14.90;99.90;;;;;;5034201;28;20186;-72
2022/05/20 02:55:26;;;;;;;101.88;95.45;;;14.90;99.90;;;;;;5032817;28;20252;-72
2022/05/20 02:57:52;;;;;;;109.20;101.20;;;15.00;99.90;;;;;;5032439;28;20221;-72
2022/05/20 03:05:46;;;;;;;116.70;108.75;;;14.90;99.90;;;;;;5033780;28;20178;-72
2022/05/20 03:08:12;;;;;;;121.68;113.25;;;14.90;99.90;;;;;;5047540;28;20182;-72
2022/05/20 03:10:38;;;;;;;134.38;126.03;;;14.90;99.90;;;;;;5065088;28;20193;-72
2022/05/20 03:13:06;;;;;;;115.57;108.00;;;15.00;99.90;;;;;;5033206;28;20214;-72
2022/05/20 03:15:33;;;;;;;115.38;107.95;;;15.00;99.90;;;;;;5064655;28;20186;-72
2022/05/20 03:17:59;;;;;;;111.70;104.90;;;15.10;99.90;;;;;;5038279;28;20669;-72
2022/05/20 03:20:25;;;;;;;118.78;110.95;;;15.10;99.90;;;;;;5042417;28;20214;-72
2022/05/20 03:22:51;;;;;;;116.95;109.32;;;15.00;99.90;;;;;;5048544;28;20644;-72
2022/05/20 03:25:17;;;;;;;121.72;114.15;;;15.00;99.90;;;;;;5049771;28;20185;-72
2022/05/20 03:27:43;;;;;;;119.68;111.72;;;14.90;99.90;;;;;;5047724;28;20221;-72
2022/05/20 03:30:11;;;;;;;131.95;123.32;;;15.00;99.90;;;;;;5045480;28;20185;-72
2022/05/20 03:32:37;;;;;;;136.27;127.85;;;15.00;99.90;;;;;;5040165;28;20285;-72
2022/05/20 03:35:04;;;;;;;138.10;129.73;;;15.00;99.90;;;;;;5031880;28;20639;-72
2022/05/20 03:37:31;;;;;;;159.73;150.77;;;15.00;99.90;;;;;;5031876;28;20186;-72
2022/05/20 03:39:56;;;;;;;163.75;154.38;;;15.00;99.90;;;;;;5033047;28;20218;-73
2022/05/20 03:42:24;;;;;;;171.27;161.32;;;15.00;99.90;;;;;;5051276;28;20239;-72
2022/05/20 03:44:50;;;;;;;197.55;187.15;;;15.00;99.90;;;;;;5033151;28;20185;-72
2022/05/20 03:47:16;;;;;;;196.98;186.35;;;14.90;99.90;;;;;;5037730;28;20180;-72
2022/05/20 03:49:42;;;;;;;228.93;217.35;;;14.90;99.90;;;;;;5051371;28;20182;-72
2022/05/20 03:52:09;;;;;;;270.17;257.23;;;14.90;99.90;;;;;;5039587;28;20178;-72
2022/05/20 03:54:35;;;;;;;304.67;289.90;;;14.90;99.90;;;;;;5044674;28;20190;-72
2022/05/20 03:57:02;;;;;;;249.48;237.18;;;15.00;99.90;;;;;;5032570;28;20225;-72
2022/05/20 03:59:28;;;;;;;243.60;231.05;;;15.00;99.90;;;;;;5045051;28;20287;-72
2022/05/20 04:01:57;;;;;;;201.27;190.88;;;15.10;99.90;;;;;;5041665;28;20289;-72
2022/05/20 04:04:45;;;;;;;202.68;192.15;;;15.00;99.90;;;;;;5041062;28;20186;-71
2022/05/20 04:07:25;;;;;;;216.18;204.77;;;15.00;99.90;;;;;;5052109;28;20294;-72
2022/05/20 04:09:51;;;;;;;196.40;184.95;;;15.00;99.90;;;;;;5049174;28;20209;-72
2022/05/20 04:12:25;;;;;;;192.90;182.30;;;14.90;99.90;;;;;;5051541;28;20248;-72
2022/05/20 04:14:51;;;;;;;238.23;226.25;;;14.90;99.90;;;;;;5038405;28;20663;-72
2022/05/20 04:17:17;;;;;;;256.77;244.32;;;14.80;99.90;;;;;;5032696;28;20273;-72
2022/05/20 04:19:43;;;;;;;268.77;255.73;;;14.80;99.90;;;;;;5031837;28;20302;-72
2022/05/20 04:22:11;;;;;;;306.52;292.00;;;14.80;99.90;;;;;;5033042;28;20191;-72
2022/05/20 04:24:37;;;;;;;338.90;323.15;;;14.90;99.90;;;;;;5033069;28;20252;-72
2022/05/20 04:27:06;;;;;;;357.10;340.80;;;15.10;99.90;;;;;;5049208;28;20361;-72
2022/05/20 04:29:32;;;;;;;332.27;316.33;;;15.20;99.90;;;;;;5035023;28;20193;-72
2022/05/20 04:31:57;;;;;;;336.98;321.40;;;15.30;99.90;;;;;;5035112;28;20190;-72
2022/05/20 04:34:23;;;;;;;322.23;307.00;;;15.40;99.90;;;;;;5035008;28;20218;-72
2022/05/20 04:36:48;;;;;;;317.70;302.58;;;15.60;99.90;;;;;;5038155;28;20216;-72
2022/05/20 04:39:14;;;;;;;326.90;311.63;;;15.70;99.90;;;;;;5049742;28;20293;-72
2022/05/20 04:47:19;;;;;;;428.42;409.50;;;15.50;99.90;;;;;;5036147;28;20291;-72
2022/05/20 04:49:45;;;;;;;442.00;422.17;;;15.40;99.90;;;;;;5068461;28;20186;-72
2022/05/20 04:52:11;;;;;;;457.55;436.60;;;15.40;99.90;;;;;;5053237;28;20196;-72
2022/05/20 04:54:51;;;;;;;479.20;457.17;;;15.30;99.90;;;;;;5036892;28;20201;-72
2022/05/20 04:57:29;;;;;;;484.40;461.67;;;15.40;99.90;;;;;;5039070;28;20273;-72
2022/05/20 05:00:05;;;;;;;490.50;468.23;;;15.40;99.90;;;;;;5039663;28;20640;-72
2022/05/20 05:02:32;;;;;;;494.67;472.23;;;15.80;99.90;;;;;;5035940;28;20285;-72
2022/05/20 05:05:01;;;;;;;474.92;452.92;;;16.00;99.90;;;;;;5045591;28;20191;-71
2022/05/20 05:07:27;;;;;;;468.38;447.48;;;16.00;99.90;;;;;;5035641;28;20190;-72
2022/05/20 05:09:53;;;;;;;453.80;433.23;;;16.10;99.90;;;;;;5035462;28;20624;-72
2022/05/20 05:12:19;;;;;;;455.65;435.10;;;15.90;99.90;;;;;;5041709;28;20647;-72
2022/05/20 05:14:48;;;;;;;413.35;394.13;;;15.90;99.90;;;;;;5053519;28;20198;-72
2022/05/20 05:18:09;;;;;;;412.08;393.25;;;15.80;99.90;;;;;;5049786;28;20194;-72
2022/05/20 05:20:17;;;;;;;370.58;353.77;;;15.70;99.90;;;;;;5035184;28;20758;-72
2022/05/20 05:22:43;;;;;;;373.88;356.70;;;15.90;99.90;;;;;;5035665;28;20190;-71
2022/05/20 05:25:11;;;;;;;361.55;345.08;;;16.30;99.90;;;;;;5035267;28;20197;-73
2022/05/20 05:27:36;;;;;;;327.65;312.08;;;16.50;99.90;;;;;;5050025;28;20190;-72
2022/05/20 05:30:03;;;;;;;300.13;286.67;;;16.70;99.90;;;;;;5017407;28;20201;-71
2022/05/20 05:32:28;;;;;;;265.77;252.15;;;16.60;99.90;;;;;;5067306;28;20632;-72
2022/05/20 05:34:54;;;;;;;242.88;231.40;;;16.70;99.90;;;;;;5067521;28;20186;-72
2022/05/20 05:37:20;;;;;;;238.48;226.48;;;16.80;99.90;;;;;;5035145;28;20186;-72
2022/05/20 05:39:46;;;;;;;255.43;241.25;;;17.10;99.90;;;;;;5016141;28;20214;-70
2022/05/20 05:42:12;;;;;;;182.90;173.00;;;17.20;99.90;;;;;;5035280;28;20195;-73
2022/05/20 05:44:38;;;;;;;166.82;157.50;;;17.20;99.90;;;;;;5034796;28;20179;-72
2022/05/20 05:47:04;;;;;;;178.57;168.93;;;17.20;99.90;;;;;;5050434;28;20207;-72
2022/05/20 05:49:30;;;;;;;178.38;168.77;;;17.20;99.90;;;;;;5044018;28;20190;-72
2022/05/20 05:51:56;;;;;;;171.65;161.48;;;17.20;99.90;;;;;;5034722;28;20187;-71
2022/05/20 05:54:22;;;;;;;202.93;192.02;;;17.40;99.90;;;;;;5042649;28;20194;-72
2022/05/20 05:56:49;;;;;;;228.98;216.63;;;17.50;99.90;;;;;;5043437;28;20182;-72
2022/05/20 05:59:15;;;;;;;305.63;289.40;;;17.30;99.90;;;;;;5035679;28;20212;-72
2022/05/20 06:01:41;;;;;;;218.75;207.38;;;17.30;99.90;;;;;;5031872;28;20186;-72
2022/05/20 06:04:06;;;;;;;212.30;201.25;;;17.40;99.90;;;;;;5035037;28;20245;-72
2022/05/20 06:06:32;;;;;;;245.82;233.10;;;17.60;99.90;;;;;;5033117;28;20242;-73
2022/05/20 06:08:58;;;;;;;270.20;256.63;;;17.80;99.90;;;;;;5034638;28;20597;-71
2022/05/20 06:11:24;;;;;;;374.27;355.50;;;18.00;99.90;;;;;;5046516;28;20196;-73
2022/05/20 06:13:49;;;;;;;553.47;525.30;;;18.40;99.90;;;;;;5026845;28;20562;-71
2022/05/20 06:16:21;;;;;;;609.03;576.22;;;18.20;99.90;;;;;;5033652;28;20186;-71
2022/05/20 06:18:47;;;;;;;648.50;613.72;;;18.00;99.90;;;;;;5034262;28;20218;-70
2022/05/20 06:21:13;;;;;;;640.15;605.80;;;17.80;99.90;;;;;;5046697;28;20224;-73
2022/05/20 06:23:39;;;;;;;610.03;577.85;;;17.40;99.90;;;;;;5033174;28;20578;-72
2022/05/20 06:26:04;;;;;;;538.17;510.42;;;17.40;99.90;;;;;;5034133;28;20631;-72
2022/05/20 06:28:30;;;;;;;497.60;472.60;;;17.50;99.90;;;;;;5049819;28;20187;-71
2022/05/20 06:30:57;;;;;;;520.53;493.33;;;17.90;99.90;;;;;;5074427;28;20178;-73
2022/05/20 06:33:24;;;;;;;544.50;517.10;;;18.10;99.90;;;;;;5044654;28;20215;-73
2022/05/20 06:41:18;;;;;;;757.58;713.60;;;19.10;99.90;;;;;;5033806;28;20240;-75
2022/05/20 06:43:44;;;;;;;823.60;773.28;;;18.50;99.90;;;;;;5043028;28;20194;-72
2022/05/20 06:46:10;;;;;;;799.50;751.80;;;18.50;99.90;;;;;;5034444;28;20183;-72
2022/05/20 06:48:40;;;;;;;759.60;715.35;;;18.30;99.90;;;;;;5057750;28;20611;-72
2022/05/20 06:51:07;;;;;;;765.33;720.13;;;18.80;99.90;;;;;;5066160;28;20575;-72
2022/05/20 06:53:33;;;;;;;777.08;731.05;;;19.10;99.90;;;;;;5044474;28;20264;-72
2022/05/20 06:55:59;;;;;;;834.20;781.78;;;19.10;99.90;;;;;;5041416;28;20881;-71
2022/05/20 06:58:24;;;;;;;840.65;788.55;;;19.10;99.90;;;;;;5033866;28;20248;-71
2022/05/20 07:00:50;;;;;;;862.92;808.28;;;19.00;99.90;;;;;;5051345;28;20643;-72
2022/05/20 07:03:19;;;;;;;841.35;788.85;;;19.00;99.90;;;;;;5042845;28;20280;-72
2022/05/20 07:05:45;;;;;;;864.83;810.28;;;19.20;99.90;;;;;;5016841;28;20195;-72
2022/05/20 07:08:11;;;;;;;851.63;798.58;;;19.70;99.90;;;;;;5033275;28;20655;-72
2022/05/20 07:10:37;;;;;;;880.10;824.35;;;20.20;99.90;;;;;;5056747;28;20190;-71
2022/05/20 07:13:02;;;;;;;907.38;848.65;;;20.40;99.90;;;;;;5038693;28;20186;-71
2022/05/20 07:15:28;;;;;;;936.70;875.53;;;20.70;99.90;;;;;;5041389;28;20248;-73
2022/05/20 07:17:54;;;;;;;971.45;907.00;;;21.20;99.90;;;;;;5032168;28;20197;-72
2022/05/20 07:20:19;;;;;;;995.70;928.78;;;21.30;99.90;;;;;;5032401;28;20206;-72
2022/05/20 07:22:45;;;;;;;1042.88;969.78;;;21.30;99.90;;;;;;5033490;28;20194;-72
2022/05/20 07:25:11;;;;;;;1061.13;985.90;;;21.30;99.90;;;;;;5031833;28;20193;-72
2022/05/20 07:27:37;;;;;;;1076.55;998.47;;;21.50;99.90;;;;;;5033496;28;20201;-71
2022/05/20 07:30:03;;;;;;;1116.78;999.90;;;21.70;99.90;;;;;;5041955;28;20619;-73
2022/05/20 07:32:29;;;;;;;1107.05;999.90;;;21.50;99.90;;;;;;5032879;28;20210;-72
2022/05/20 07:34:55;;;;;;;1106.03;999.90;;;20.90;99.90;;;;;;5065250;28;20281;-73
2022/05/20 07:37:20;;;;;;;1083.97;999.90;;;20.90;99.90;;;;;;5031819;28;20187;-72
2022/05/20 07:39:46;;;;;;;1116.30;999.90;;;21.20;99.90;;;;;;5065712;28;20214;-73
2022/05/20 07:42:13;;;;;;;1105.43;999.90;;;21.00;99.90;;;;;;5039883;28;20190;-72
2022/05/20 07:44:41;;;;;;;1110.13;999.90;;;20.80;99.90;;;;;;5039085;28;20183;-72
2022/05/20 07:47:07;;;;;;;1097.88;999.90;;;20.60;99.90;;;;;;5032777;28;20639;-72
2022/05/20 07:49:33;;;;;;;1097.53;999.90;;;20.60;99.90;;;;;;5053575;28;20218;-71
2022/05/20 07:52:02;;;;;;;1053.03;978.22;;;20.50;99.90;;;;;;5033006;28;20617;-72
2022/05/20 07:54:34;;;;;;;1031.60;959.42;;;20.60;99.90;;;;;;5051288;28;20301;-73
2022/05/20 07:57:04;;;;;;;1026.07;955.28;;;20.60;99.90;;;;;;5041212;28;20632;-72
2022/05/20 07:59:44;;;;;;;1039.13;966.90;;;20.40;99.90;;;;;;5032860;28;20206;-72
2022/05/20 08:02:10;;;;;;;1002.60;934.08;;;20.10;99.90;;;;;;5045310;28;20198;-71
2022/05/20 08:05:00;;;;;;;988.42;921.65;;;20.00;99.90;;;;;;5035974;28;20193;-72
2022/05/20 08:07:26;;;;;;;960.25;896.65;;;20.00;99.90;;;;;;5037203;28;20186;-72
2022/05/20 08:09:53;;;;;;;956.85;893.67;;;20.40;99.90;;;;;;5036888;28;20183;-71
2022/05/20 08:12:19;;;;;;;976.83;911.97;;;20.80;99.90;;;;;;5037277;28;20187;-72
2022/05/20 08:14:44;;;;;;;999.05;931.63;;;20.70;99.90;;;;;;5035206;28;20252;-72
2022/05/20 08:17:10;;;;;;;981.22;915.58;;;20.80;99.90;;;;;;5036863;28;20195;-72
2022/05/20 08:19:38;;;;;;;1013.10;944.33;;;21.10;99.90;;;;;;5035633;28;20210;-73
2022/05/20 08:22:04;;;;;;;1057.80;982.83;;;21.10;99.90;;;;;;5036886;28;20194;-71
2022/05/20 08:24:30;;;;;;;1035.93;964.03;;;20.80;99.90;;;;;;5043351;28;20259;-72
2022/05/20 08:26:56;;;;;;;1023.55;953.47;;;21.10;99.90;;;;;;5064276;28;20222;-72
2022/05/20 08:29:23;;;;;;;1040.28;968.08;;;21.40;99.90;;;;;;5046020;28;20264;-72
2022/05/20 08:31:48;;;;;;;1058.70;983.75;;;21.50;99.90;;;;;;5047225;28;20197;-72
2022/05/20 08:34:14;;;;;;;1092.03;999.90;;;21.50;99.90;;;;;;5036136;28;20183;-71
2022/05/20 08:36:40;;;;;;;1070.65;994.03;;;21.60;99.90;;;;;;5036393;28;20183;-72
2022/05/20 08:39:10;;;;;;;1092.07;999.90;;;21.60;99.90;;;;;;5036279;28;20352;-72
2022/05/20 08:41:53;;;;;;;1091.35;999.90;;;21.40;99.90;;;;;;5035222;28;20197;-72
2022/05/20 08:44:21;;;;;;;1082.05;999.90;;;21.50;99.90;;;;;;5034605;28;20194;-72
2022/05/20 08:46:48;;;;;;;1058.57;983.33;;;21.30;99.90;;;;;;5038483;28;20518;-72
2022/05/20 08:49:17;;;;;;;1073.70;996.65;;;21.70;99.90;;;;;;5043943;28;20264;-71
2022/05/20 08:51:52;;;;;;;1081.30;999.90;;;21.80;99.90;;;;;;5050318;28;20182;-72
2022/05/20 08:54:18;;;;;;;1093.72;999.90;;;22.10;99.90;;;;;;5035940;28;20182;-72
2022/05/20 08:56:45;;;;;;;1078.70;999.83;;;22.10;99.90;;;;;;5035909;28;20549;-72
2022/05/20 08:59:21;;;;;;;1104.13;999.90;;;21.60;99.90;;;;;;5034631;28;20556;-72
2022/05/20 09:01:53;;;;;;;1074.18;997.47;;;21.40;99.90;;;;;;5067822;28;20259;-72
2022/05/20 09:04:24;;;;;;;1072.70;995.33;;;21.20;99.90;;;;;;5043603;28;20210;-73
2022/05/20 09:07:01;;;;;;;1051.07;977.17;;;21.20;99.90;;;;;;5034570;28;20183;-72
2022/05/20 09:09:49;;;;;;;1049.45;974.50;;;21.50;99.90;;;;;;5068054;28;20190;-72
2022/05/20 09:12:25;;;;;;;1063.32;987.67;;;21.60;99.90;;;;;;5035290;28;20654;-72
2022/05/20 09:17:46;;;;;;;1042.78;969.47;;;21.40;99.90;;;;;;5045266;28;20665;-72
2022/05/20 09:20:16;;;;;;;1024.80;954.28;;;20.90;99.90;;;;;;5053826;28;20202;-72
2022/05/20 09:22:54;;;;;;;1002.53;933.95;;;20.80;99.90;;;;;;5054192;28;20154;-72
2022/05/20 09:25:23;;;;;;;989.17;922.08;;;20.80;99.90;;;;;;5054318;28;20562;-72
2022/05/20 09:27:54;;;;;;;976.40;911.13;;;20.60;99.90;;;;;;5025585;28;20273;-72
2022/05/20 09:30:23;;;;;;;944.03;881.90;;;20.50;99.90;;;;;;5033945;28;20397;-72
2022/05/20 09:33:15;;;;;;;907.95;848.97;;;20.50;99.90;;;;;;5035375;28;20210;-72
2022/05/20 09:35:59;;;;;;;925.70;865.50;;;20.70;99.90;;;;;;5066712;28;20186;-72
2022/05/20 09:38:35;;;;;;;885.95;829.10;;;20.50;99.90;;;;;;5034914;28;20210;-71
2022/05/20 09:41:20;;;;;;;855.25;800.58;;;20.50;99.90;;;;;;5035101;28;20201;-71
2022/05/20 09:43:59;;;;;;;875.40;819.47;;;20.70;99.90;;;;;;5050658;28;20658;-71
2022/05/20 09:46:58;;;;;;;863.95;808.53;;;20.90;99.90;;;;;;5035177;28;20182;-72
2022/05/20 09:49:34;;;;;;;876.35;820.03;;;20.60;99.90;;;;;;5066333;28;20198;-72
2022/05/20 09:52:00;;;;;;;836.28;783.38;;;20.70;99.90;;;;;;5040008;28;20602;-72
2022/05/20 09:54:41;;;;;;;829.95;778.70;;;20.60;99.90;;;;;;5033615;28;20657;-72
2022/05/20 09:57:20;;;;;;;814.67;764.65;;;20.50;99.90;;;;;;5034583;28;20288;-72
2022/05/20 10:00:17;;;;;;;758.03;713.33;;;20.50;99.90;;;;;;5035150;28;20313;-72
2022/05/20 10:03:11;;;;;;;791.63;743.40;;;20.70;99.90;;;;;;5038509;28;20269;-72
2022/05/20 10:05:55;;;;;;;805.55;757.00;;;20.80;99.90;;;;;;5050326;28;20182;-72
2022/05/20 10:08:29;;;;;;;817.60;767.65;;;20.80;99.90;;;;;;5035024;28;20193;-73
2022/05/20 10:11:18;;;;;;;866.22;811.78;;;21.10;99.90;;;;;;5033047;28;20214;-73
2022/05/20 10:13:53;;;;;;;825.05;774.25;;;21.20;99.90;;;;;;5035070;28;20198;-72
2022/05/20 10:16:35;;;;;;;878.65;822.55;;;21.30;99.90;;;;;;5034436;28;20530;-72
2022/05/20 10:19:01;;;;;;;881.25;824.45;;;21.40;99.90;;;;;;5034315;28;20260;-72
2022/05/20 10:21:42;;;;;;;919.45;859.67;;;21.80;99.90;;;;;;5034251;28;20190;-73
2022/05/20 10:24:23;;;;;;;899.72;842.35;;;21.70;99.90;;;;;;5034053;28;20186;-73
2022/05/20 10:27:03;;;;;;;879.10;823.00;;;21.60;99.90;;;;;;5034601;28;20213;-73
2022/05/20 10:32:34;;;;;;;875.38;819.13;;;21.50;99.90;;;;;;5034246;28;20190;-73
2022/05/20 10:35:01;;;;;;;833.40;782.13;;;21.60;99.90;;;;;;5034464;28;20217;-72
2022/05/20 10:38:05;;;;;;;847.95;795.58;;;21.70;99.90;;;;;;5033682;28;20191;-73
2022/05/20 10:41:03;;;;;;;890.58;833.78;;;22.10;99.90;;;;;;5033668;28;20201;-73
2022/05/20 10:50:18;;;;;;;910.85;852.53;;;22.50;99.90;;;;;;5032893;28;20197;-73
2022/05/20 10:53:21;;;;;;;931.92;870.60;;;22.80;99.90;;;;;;5031603;28;20293;-72
2022/05/20 10:56:03;;;;;;;914.30;854.88;;;22.30;99.90;;;;;;5044958;28;20265;-72
2022/05/20 10:58:39;;;;;;;872.75;815.95;;;22.20;99.90;;;;;;5033573;28;20190;-72
2022/05/20 11:01:21;;;;;;;834.28;782.45;;;21.90;99.90;;;;;;5033914;28;20852;-72
2022/05/20 11:04:18;;;;;;;794.63;747.13;;;21.60;99.90;;;;;;5037242;28;20190;-71
2022/05/20 11:07:09;;;;;;;721.75;681.92;;;21.50;99.90;;;;;;5042480;28;20187;-73
2022/05/20 11:09:37;;;;;;;746.50;703.97;;;21.30;99.90;;;;;;5081841;28;20193;-73
2022/05/20 11:12:05;;;;;;;768.15;723.10;;;21.30;99.90;;;;;;5037833;28;20652;-72
2022/05/20 11:15:09;;;;;;;761.08;716.65;;;21.50;99.90;;;;;;5033574;28;20530;-72
2022/05/20 11:17:56;;;;;;;777.08;731.22;;;21.30;99.90;;;;;;5033323;28;20181;-73
2022/05/20 11:20:41;;;;;;;768.10;721.75;;;21.30;99.90;;;;;;5033269;28;20233;-74
2022/05/20 11:23:44;;;;;;;748.90;703.85;;;21.40;99.90;;;;;;5032993;28;20237;-74
2022/05/20 11:26:10;;;;;;;717.33;675.10;;;21.20;99.90;;;;;;5032972;28;20547;-73
2022/05/20 11:29:01;;;;;;;731.55;688.67;;;20.80;99.90;;;;;;5032776;28;20269;-74
2022/05/20 11:31:43;;;;;;;709.08;666.47;;;20.40;99.90;;;;;;5033741;28;20186;-74
2022/05/20 11:34:21;;;;;;;671.75;631.42;;;20.20;99.90;;;;;;5032846;28;20187;-73
2022/05/20 11:37:02;;;;;;;624.53;587.67;;;20.30;99.90;;;;;;5064722;28;20580;-72
2022/05/20 11:39:39;;;;;;;578.33;546.60;;;20.20;99.90;;;;;;5033106;28;20204;-72
2022/05/20 11:42:11;;;;;;;559.65;528.90;;;20.20;99.90;;;;;;5033069;28;20186;-72
2022/05/20 11:44:46;;;;;;;470.60;444.38;;;20.20;99.90;;;;;;5037109;28;20178;-72
2022/05/20 11:47:30;;;;;;;525.92;489.75;;;20.30;99.90;;;;;;5039604;28;20210;-70
2022/05/20 11:50:07;;;;;;;293.38;277.88;;;20.40;99.90;;;;;;5031790;28;20201;-73
2022/05/20 11:52:35;;;;;;;290.98;276.10;;;20.40;99.90;;;;;;5032987;28;20186;-72
2022/05/20 11:55:24;;;;;;;317.80;302.23;;;20.60;99.90;;;;;;5033362;28;20194;-72
2022/05/20 11:57:58;;;;;;;320.15;305.08;;;20.90;99.90;;;;;;5069064;28;20210;-72
2022/05/20 12:00:25;;;;;;;376.08;358.50;;;21.10;99.90;;;;;;5037001;28;20214;-72
2022/05/20 12:02:57;;;;;;;451.73;430.85;;;21.50;99.90;;;;;;5032958;28;20635;-73
2022/05/20 12:05:30;;;;;;;490.45;467.33;;;21.80;99.90;;;;;;5033256;28;20183;-72
2022/05/20 12:07:56;;;;;;;525.88;501.20;;;22.10;99.90;;;;;;5035560;28;20244;-73
2022/05/20 12:10:30;;;;;;;537.58;512.40;;;22.10;99.90;;;;;;5032885;28;20198;-73
2022/05/20 12:13:14;;;;;;;621.00;590.70;;;22.10;99.90;;;;;;5032419;28;20189;-71
2022/05/20 12:15:44;;;;;;;673.50;638.80;;;22.40;99.90;;;;;;5032766;28;20179;-71
2022/05/20 12:24:50;;;;;;;821.53;773.10;;;22.50;99.90;;;;;;5037559;28;20556;-70
2022/05/20 12:27:22;;;;;;;855.55;803.80;;;22.50;99.90;;;;;;5043145;28;20182;-72
2022/05/20 12:30:08;;;;;;;833.83;784.47;;;22.30;99.90;;;;;;5040652;28;20191;-71
2022/05/20 12:32:37;;;;;;;825.30;776.53;;;22.40;99.90;;;;;;5034241;28;20186;-71
2022/05/20 12:35:10;;;;;;;849.05;797.85;;;22.50;99.90;;;;;;5033854;28;20580;-71
2022/05/20 12:37:44;;;;;;;835.10;785.67;;;22.40;99.90;;;;;;5043665;28;20178;-71
2022/05/20 12:40:39;;;;;;;842.53;792.40;;;22.30;99.90;;;;;;5037819;28;20217;-71
2022/05/20 12:43:06;;;;;;;847.78;797.17;;;22.50;99.90;;;;;;5032206;28;20183;-73
2022/05/20 12:45:55;;;;;;;859.30;807.22;;;22.80;99.90;;;;;;5031992;28;20198;-72
2022/05/20 12:48:30;;;;;;;868.03;815.15;;;22.70;99.90;;;;;;5033874;28;20175;-70
2022/05/20 12:50:59;;;;;;;885.00;830.53;;;22.70;99.90;;;;;;5035774;28;20186;-72
2022/05/20 12:53:29;;;;;;;897.67;842.03;;;22.60;99.90;;;;;;5035694;28;20205;-72
2022/05/20 12:55:55;;;;;;;900.75;844.78;;;22.50;99.90;;;;;;5040271;28;20193;-73
2022/05/20 12:58:25;;;;;;;882.60;828.00;;;22.20;99.90;;;;;;5036239;28;20193;-73
2022/05/20 13:00:53;;;;;;;868.60;815.67;;;22.20;99.90;;;;;;5036147;28;20305;-73
2022/05/20 13:03:30;;;;;;;848.78;798.10;;;22.00;99.90;;;;;;5036068;28;20256;-72